Statia Express — V7TT3 — position and weather

sailwx.info

Track history (hours):
 
Tides and Currents Weather Stations Pressure Air Temp Water Temp Dewpoint Dewpoint Depression Visibility Wind Speed Wind Dir Waves Ship Positions

Statia Express

Last reported at 2016-Jul-18 23:25 UTC. Time now 2016-Jul-30 14:55 UTC.
Position N 16°19' W 062°07'.
Warning: this ship's position is 11 days out of date.

Length 28 m; draft 4.1 m.

Type: Tug. MMSI: 538003879.

Date/timePositionNaut miles runAvg speedWind from/ knotsBaromVisibWave heightAir tempDewpointWater temp
2016-Jul-18 23:25N 16°19' W 062°07'7 8.6
2016-Jul-18 22:33N 16°25' W 062°12'9 8.8
2016-Jul-18 21:33N 16°32' W 062°17'9 9.2
2016-Jul-18 20:33N 16°40' W 062°22'  
2016-Jul-13 23:07N 17°43' W 063°04'4 6.3
2016-Jul-13 22:32N 17°46' W 063°04'7 6.4
2016-Jul-13 21:30N 17°53' W 063°05'6 6.2
2016-Jul-13 20:33N 17°59' W 063°05'3 0.4
2016-Jul-13 12:16N 18°01' W 063°03'0 0.1
2016-Jul-13 07:26N 18°01' W 063°03'0 0.0
2016-Jul-12 22:06N 18°00' W 063°03'0 0.0
2016-Jul-12 12:04N 18°01' W 063°03'0 0.0
2016-Jul-12 11:13N 18°01' W 063°03'0 0.4
2016-Jul-12 10:26N 18°00' W 063°03'0 0.1
2016-Jul-12 04:13N 18°01' W 063°03'0 0.0
2016-Jul-12 03:26N 18°01' W 063°03'0 0.0
2016-Jul-12 01:24N 18°01' W 063°03'0 0.0
2016-Jul-12 00:29N 18°01' W 063°03'2 0.7
2016-Jul-11 21:29N 18°01' W 063°05'0 0.0
2016-Jul-11 20:25N 18°01' W 063°05'0 0.0
2016-Jul-11 19:30N 18°01' W 063°05'0 0.0
2016-Jul-11 18:30N 18°01' W 063°05'0 0.0
2016-Jul-11 17:33N 18°01' W 063°05'0 0.0
2016-Jul-11 16:23N 18°01' W 063°05'0 0.0
2016-Jul-11 15:04N 18°01' W 063°05'0 0.0
2016-Jul-11 14:33N 18°01' W 063°05'0 0.0
2016-Jul-11 13:29N 18°01' W 063°05'0 0.0
2016-Jul-11 12:13N 18°01' W 063°05'0 0.0
2016-Jul-11 11:27N 18°01' W 063°05'1 1.0
2016-Jul-11 10:03N 18°01' W 063°04'1 1.1
2016-Jul-11 09:30N 18°01' W 063°03'0 0.0
2016-Jul-11 08:24N 18°01' W 063°03'0 0.0
2016-Jul-10 19:15N 18°00' W 063°03'0 0.3
2016-Jul-10 18:33N 18°00' W 063°03'0 0.0
2016-Jul-10 17:27N 18°00' W 063°03'0 0.0
2016-Jul-10 16:29N 18°00' W 063°03'0 0.0
2016-Jul-10 15:33N 18°00' W 063°03'0 0.0
2016-Jul-10 14:32N 18°00' W 063°03'0 0.0
2016-Jul-10 13:33N 18°00' W 063°03'0 0.0
2016-Jul-10 12:31N 18°00' W 063°03'1 0.2
2016-Jul-10 10:25N 18°01' W 063°03'0 0.0
2016-Jul-10 09:10N 18°01' W 063°03'0 0.0
2016-Jul-10 08:09N 18°01' W 063°03'0 0.0
2016-Jul-10 07:31N 18°01' W 063°03'0 0.0
2016-Jul-10 06:29N 18°01' W 063°03'0 0.1
2016-Jul-10 05:26N 18°01' W 063°03'1 1.1
2016-Jul-10 04:31N 18°00' W 063°04'3 2.7
2016-Jul-10 03:26N 17°57' W 063°05'5 5.1
2016-Jul-10 02:29N 17°53' W 063°05'5 5.3
2016-Jul-10 01:33N 17°48' W 063°04'  
Track history (hours):
 
Tides and Currents Weather Stations Pressure Air Temp Water Temp Dewpoint Dewpoint Depression Visibility Wind Speed Wind Dir Waves Ship Positions

Statia Express

Last reported at 2016-Jul-18 23:25 UTC. Time now 2016-Jul-30 14:55 UTC.
Position N 16°19' W 062°07'.
Warning: this ship's position is 11 days out of date.

Length 28 m; draft 4.1 m.

Type: Tug. MMSI: 538003879.

Date/timePositionNaut miles runAvg speedWind from/ knotsBaromVisibWave heightAir tempDewpointWater temp
2016-Jul-18 23:25N 16°19' W 062°07'7 8.6
2016-Jul-18 22:33N 16°25' W 062°12'9 8.8
2016-Jul-18 21:33N 16°32' W 062°17'9 9.2
2016-Jul-18 20:33N 16°40' W 062°22'  
2016-Jul-13 23:07N 17°43' W 063°04'4 6.3
2016-Jul-13 22:32N 17°46' W 063°04'7 6.4
2016-Jul-13 21:30N 17°53' W 063°05'6 6.2
2016-Jul-13 20:33N 17°59' W 063°05'3 0.4
2016-Jul-13 12:16N 18°01' W 063°03'0 0.1
2016-Jul-13 07:26N 18°01' W 063°03'0 0.0
2016-Jul-12 22:06N 18°00' W 063°03'0 0.0
2016-Jul-12 12:04N 18°01' W 063°03'0 0.0
2016-Jul-12 11:13N 18°01' W 063°03'0 0.4
2016-Jul-12 10:26N 18°00' W 063°03'0 0.1
2016-Jul-12 04:13N 18°01' W 063°03'0 0.0
2016-Jul-12 03:26N 18°01' W 063°03'0 0.0
2016-Jul-12 01:24N 18°01' W 063°03'0 0.0
2016-Jul-12 00:29N 18°01' W 063°03'2 0.7
2016-Jul-11 21:29N 18°01' W 063°05'0 0.0
2016-Jul-11 20:25N 18°01' W 063°05'0 0.0
2016-Jul-11 19:30N 18°01' W 063°05'0 0.0
2016-Jul-11 18:30N 18°01' W 063°05'0 0.0
2016-Jul-11 17:33N 18°01' W 063°05'0 0.0
2016-Jul-11 16:23N 18°01' W 063°05'0 0.0
2016-Jul-11 15:04N 18°01' W 063°05'0 0.0
2016-Jul-11 14:33N 18°01' W 063°05'0 0.0
2016-Jul-11 13:29N 18°01' W 063°05'0 0.0
2016-Jul-11 12:13N 18°01' W 063°05'0 0.0
2016-Jul-11 11:27N 18°01' W 063°05'1 1.0
2016-Jul-11 10:03N 18°01' W 063°04'1 1.1
2016-Jul-11 09:30N 18°01' W 063°03'0 0.0
2016-Jul-11 08:24N 18°01' W 063°03'0 0.0
2016-Jul-10 19:15N 18°00' W 063°03'0 0.3
2016-Jul-10 18:33N 18°00' W 063°03'0 0.0
2016-Jul-10 17:27N 18°00' W 063°03'0 0.0
2016-Jul-10 16:29N 18°00' W 063°03'0 0.0
2016-Jul-10 15:33N 18°00' W 063°03'0 0.0
2016-Jul-10 14:32N 18°00' W 063°03'0 0.0
2016-Jul-10 13:33N 18°00' W 063°03'0 0.0
2016-Jul-10 12:31N 18°00' W 063°03'1 0.2
2016-Jul-10 10:25N 18°01' W 063°03'0 0.0
2016-Jul-10 09:10N 18°01' W 063°03'0 0.0
2016-Jul-10 08:09N 18°01' W 063°03'0 0.0
2016-Jul-10 07:31N 18°01' W 063°03'0 0.0
2016-Jul-10 06:29N 18°01' W 063°03'0 0.1
2016-Jul-10 05:26N 18°01' W 063°03'1 1.1
2016-Jul-10 04:31N 18°00' W 063°04'3 2.7
2016-Jul-10 03:26N 17°57' W 063°05'5 5.1
2016-Jul-10 02:29N 17°53' W 063°05'5 5.3
2016-Jul-10 01:33N 17°48' W 063°04'  

Dump ship's entire track history